Time;durP1;ratioP1;P1;durP2;ratioP2;P2;SDS_P1;SDS_P2;PMS_P1;PMS_P2;Temp;Humidity;BMP_temperature;BMP_pressure;BME280_temperature;BME280_humidity;BME280_pressure;Samples;Min_cycle;Max_cycle;Signal;HPM_P1;HPM_P2
2022/05/04 00:00:49;;;;;;;5.73;3.87;;;10.60;99.90;;;;;;5030264;28;20461;-80
2022/05/04 00:03:17;;;;;;;7.03;3.37;;;10.50;99.90;;;;;;5008179;28;20912;-83
2022/05/04 00:05:44;;;;;;;12.13;4.87;;;10.40;99.90;;;;;;5018132;28;20465;-83
2022/05/04 00:08:11;;;;;;;6.60;4.20;;;10.40;99.90;;;;;;5018823;28;20457;-82
2022/05/04 00:10:38;;;;;;;7.10;4.20;;;10.40;99.90;;;;;;5018217;28;20491;-82
2022/05/04 00:13:05;;;;;;;5.70;3.83;;;10.40;99.90;;;;;;5042054;22;20966;-79
2022/05/04 00:15:32;;;;;;;5.90;3.40;;;10.30;99.90;;;;;;5011652;28;20446;-78
2022/05/04 00:17:58;;;;;;;12.23;4.20;;;10.30;99.90;;;;;;5021234;28;20555;-80
2022/05/04 00:20:27;;;;;;;5.80;3.90;;;10.30;99.90;;;;;;5014061;28;20971;-79
2022/05/04 00:22:53;;;;;;;6.20;3.73;;;10.10;99.90;;;;;;5021142;28;20834;-79
2022/05/04 00:25:20;;;;;;;10.03;5.17;;;10.10;99.90;;;;;;5033674;28;20849;-79
2022/05/04 00:27:47;;;;;;;11.50;3.60;;;10.20;99.90;;;;;;5027932;28;21002;-78
2022/05/04 00:30:14;;;;;;;9.33;4.60;;;10.10;99.90;;;;;;5017567;28;20487;-79
2022/05/04 00:32:41;;;;;;;5.90;3.57;;;10.10;99.90;;;;;;5020726;28;20449;-78
2022/05/04 00:35:09;;;;;;;6.83;3.57;;;10.10;99.90;;;;;;5017453;28;20544;-79
2022/05/04 00:37:37;;;;;;;10.30;3.90;;;10.00;99.90;;;;;;5019387;28;20478;-80
2022/05/04 00:40:05;;;;;;;10.17;4.00;;;10.00;99.90;;;;;;5022736;28;20440;-80
2022/05/04 00:42:32;;;;;;;6.10;4.07;;;10.00;99.90;;;;;;5027325;28;20464;-80
2022/05/04 00:44:58;;;;;;;5.53;4.10;;;9.90;99.90;;;;;;5028339;28;20556;-80
2022/05/04 00:47:25;;;;;;;8.33;3.93;;;9.80;99.90;;;;;;5026109;28;20458;-79
2022/05/04 00:49:53;;;;;;;8.27;4.53;;;9.80;99.90;;;;;;5034877;28;20943;-79
2022/05/04 00:52:20;;;;;;;6.63;4.17;;;9.80;99.90;;;;;;5037779;28;21054;-78
2022/05/04 00:54:51;;;;;;;8.77;4.20;;;9.80;99.90;;;;;;5028277;28;20481;-79
2022/05/04 00:58:54;;;;;;;7.13;3.77;;;9.70;99.90;;;;;;5018267;28;20959;-79
2022/05/04 01:00:09;;;;;;;7.93;4.33;;;9.70;99.90;;;;;;5030477;28;20487;-81
2022/05/04 01:02:38;;;;;;;8.47;4.37;;;9.70;99.90;;;;;;5019878;28;20453;-81
2022/05/04 01:05:05;;;;;;;7.67;4.30;;;9.70;99.90;;;;;;5019313;28;20456;-80
2022/05/04 01:07:33;;;;;;;11.43;4.70;;;9.60;99.90;;;;;;5027091;28;20462;-78
2022/05/04 01:10:01;;;;;;;7.30;4.03;;;9.60;99.90;;;;;;5037033;28;20487;-78
2022/05/04 01:12:28;;;;;;;9.60;4.80;;;9.50;99.90;;;;;;5029547;28;20452;-79
2022/05/04 01:14:54;;;;;;;10.23;4.50;;;9.50;99.90;;;;;;5013418;28;20496;-82
2022/05/04 01:17:21;;;;;;;8.03;4.70;;;9.50;99.90;;;;;;5029986;28;20470;-81
2022/05/04 01:19:51;;;;;;;8.63;4.50;;;9.50;99.90;;;;;;5027467;28;20931;-79
2022/05/04 01:22:19;;;;;;;9.93;4.70;;;9.40;99.90;;;;;;5025872;28;20503;-79
2022/05/04 01:24:46;;;;;;;7.50;5.10;;;9.40;99.90;;;;;;5037125;28;20474;-79
2022/05/04 01:27:13;;;;;;;8.20;4.40;;;9.40;99.90;;;;;;5036326;28;20466;-80
2022/05/04 01:29:40;;;;;;;5.27;3.63;;;9.30;99.90;;;;;;5036820;28;20459;-80
2022/05/04 01:32:08;;;;;;;8.20;4.90;;;9.30;99.90;;;;;;5018040;28;20459;-81
2022/05/04 01:34:35;;;;;;;4.90;3.33;;;9.30;99.90;;;;;;5018973;28;20566;-80
2022/05/04 01:37:02;;;;;;;7.17;4.50;;;9.30;99.90;;;;;;5024229;28;20566;-80
2022/05/04 01:39:30;;;;;;;6.73;4.07;;;9.20;99.90;;;;;;5034131;28;20505;-79
2022/05/04 01:42:09;;;;;;;10.23;4.43;;;9.20;99.90;;;;;;5015940;28;20452;-80
2022/05/04 01:44:36;;;;;;;9.33;5.27;;;9.20;99.90;;;;;;5017538;28;20476;-79
2022/05/04 01:47:03;;;;;;;6.80;4.00;;;9.20;99.90;;;;;;5035598;28;20929;-79
2022/05/04 01:49:30;;;;;;;8.30;4.10;;;9.20;99.90;;;;;;5035347;28;20456;-81
2022/05/04 01:51:57;;;;;;;7.97;4.80;;;9.10;99.90;;;;;;5016897;28;20490;-79
2022/05/04 01:54:24;;;;;;;6.83;4.20;;;9.10;99.90;;;;;;5016464;28;20847;-80
2022/05/04 01:56:52;;;;;;;8.27;4.80;;;9.10;99.90;;;;;;5023639;28;20537;-81
2022/05/04 01:59:19;;;;;;;7.80;4.40;;;9.00;99.90;;;;;;5038433;28;20461;-81
2022/05/04 02:01:46;;;;;;;7.90;4.43;;;9.00;99.90;;;;;;5035523;28;20468;-79
2022/05/04 02:04:14;;;;;;;6.37;4.03;;;9.00;99.90;;;;;;5036184;28;20474;-80
2022/05/04 02:06:41;;;;;;;8.30;4.57;;;8.90;99.90;;;;;;5037063;28;20446;-80
2022/05/04 02:09:08;;;;;;;6.00;4.33;;;8.90;99.90;;;;;;5031148;28;20453;-78
2022/05/04 02:11:36;;;;;;;6.67;3.60;;;8.90;99.90;;;;;;5025171;28;20483;-78
2022/05/04 02:14:05;;;;;;;7.57;4.47;;;8.80;99.90;;;;;;5027796;28;20499;-78
2022/05/04 02:16:32;;;;;;;8.33;4.80;;;8.80;99.90;;;;;;5034670;28;20459;-79
2022/05/04 02:19:00;;;;;;;5.60;4.20;;;8.80;99.90;;;;;;5035647;28;20457;-79
2022/05/04 02:21:27;;;;;;;7.10;4.50;;;8.80;99.90;;;;;;5026837;28;20452;-79
2022/05/04 02:23:54;;;;;;;8.27;4.60;;;8.80;99.90;;;;;;5015747;28;20975;-82
2022/05/04 02:26:20;;;;;;;6.73;4.10;;;8.80;99.90;;;;;;5027945;28;20463;-79
2022/05/04 02:28:50;;;;;;;7.47;4.40;;;8.70;99.90;;;;;;5036125;28;20449;-80
2022/05/04 02:31:18;;;;;;;7.40;4.70;;;8.70;99.90;;;;;;5033596;28;20491;-81
2022/05/04 02:33:47;;;;;;;5.30;4.17;;;8.60;99.90;;;;;;5035686;28;20515;-80
2022/05/04 02:38:59;;;;;;;9.30;4.80;;;8.50;99.90;;;;;;5035047;28;20802;-81
2022/05/04 02:41:25;;;;;;;8.47;4.40;;;8.50;99.90;;;;;;5033722;28;20447;-80
2022/05/04 02:43:52;;;;;;;12.73;4.97;;;8.50;99.90;;;;;;5033789;28;20553;-79
2022/05/04 02:46:23;;;;;;;8.87;4.93;;;8.50;99.90;;;;;;5022070;28;20459;-80
2022/05/04 02:48:50;;;;;;;9.27;4.20;;;8.40;99.90;;;;;;5015636;28;20864;-80
2022/05/04 02:51:17;;;;;;;6.60;4.77;;;8.40;99.90;;;;;;5035413;28;21068;-80
2022/05/04 02:53:43;;;;;;;8.43;5.13;;;8.40;99.90;;;;;;5019924;28;20474;-78
2022/05/04 02:56:10;;;;;;;9.57;5.00;;;8.30;99.90;;;;;;5015295;28;20464;-78
2022/05/04 02:58:37;;;;;;;9.10;4.80;;;8.30;99.90;;;;;;5028163;28;20456;-79
2022/05/04 03:03:54;;;;;;;14.60;6.13;;;8.30;99.90;;;;;;5034782;28;20606;-78
2022/05/04 03:06:21;;;;;;;9.70;5.03;;;8.30;99.90;;;;;;5016070;28;20462;-80
2022/05/04 03:08:48;;;;;;;10.38;6.03;;;8.30;99.90;;;;;;5015399;28;20454;-81
2022/05/04 03:13:59;;;;;;;6.88;4.75;;;8.20;99.90;;;;;;4994037;28;1057660;-83
2022/05/04 03:16:26;;;;;;;7.80;5.20;;;8.30;99.90;;;;;;5037178;28;20243;-84
2022/05/04 03:18:54;;;;;;;10.40;5.57;;;8.30;99.90;;;;;;5036867;28;20455;-81
2022/05/04 03:21:21;;;;;;;10.93;5.93;;;8.20;99.90;;;;;;5036990;28;20451;-83
2022/05/04 03:23:47;;;;;;;10.77;5.73;;;8.20;99.90;;;;;;5019708;28;21014;-81
2022/05/04 03:26:14;;;;;;;8.37;4.83;;;8.20;99.90;;;;;;5030317;28;20961;-80
2022/05/04 03:28:41;;;;;;;9.97;5.97;;;8.20;99.90;;;;;;5034489;28;20460;-78
2022/05/04 03:31:08;;;;;;;6.47;4.53;;;8.30;99.90;;;;;;5023514;28;20489;-76
2022/05/04 03:33:35;;;;;;;10.30;5.60;;;;;;;;;;5015010;28;20480;-77
2022/05/04 03:36:03;;;;;;;7.10;5.30;;;8.50;99.90;;;;;;5014804;28;20466;-78
2022/05/04 03:38:31;;;;;;;8.97;5.90;;;7.90;99.90;;;;;;5015131;28;20464;-77
2022/05/04 03:40:58;;;;;;;12.10;5.43;;;7.90;99.90;;;;;;5010839;28;20482;-79
2022/05/04 03:43:25;;;;;;;11.47;6.23;;;;;;;;;;5012642;28;20470;-78
2022/05/04 03:45:52;;;;;;;7.87;5.83;;;8.00;99.90;;;;;;5012096;28;20972;-77
2022/05/04 03:48:18;;;;;;;9.40;6.17;;;7.90;99.90;;;;;;5013761;28;20455;-78
2022/05/04 03:50:46;;;;;;;8.60;5.23;;;7.60;99.90;;;;;;5012840;28;20494;-78
2022/05/04 03:53:15;;;;;;;8.97;5.70;;;8.20;99.90;;;;;;5013072;28;20475;-79
2022/05/04 03:59:10;;;;;;;9.87;5.73;;;;;;;;;;4929815;28;20450;-77
2022/05/04 04:01:37;;;;;;;12.00;6.37;;;7.80;99.90;;;;;;4993779;28;20472;-78
2022/05/04 04:04:04;;;;;;;8.60;5.23;;;7.80;99.90;;;;;;4993533;28;20487;-77
2022/05/04 04:06:32;;;;;;;7.30;5.90;;;;;;;;;;4994235;28;20454;-78
2022/05/04 04:09:04;;;;;;;12.13;6.53;;;8.10;99.90;;;;;;4993306;28;20955;-78
2022/05/04 04:11:31;;;;;;;12.00;5.83;;;;;;;;;;4993763;28;20580;-78
2022/05/04 04:13:59;;;;;;;13.13;5.80;;;8.70;99.90;;;;;;4993773;28;20485;-78
2022/05/04 04:16:26;;;;;;;10.73;5.70;;;7.70;99.90;;;;;;4993186;28;20456;-78
2022/05/04 04:19:09;;;;;;;10.13;5.50;;;7.90;99.90;;;;;;4993311;28;20450;-78
2022/05/04 04:21:53;;;;;;;10.73;5.70;;;7.80;99.90;;;;;;4993533;28;20458;-78
2022/05/04 04:24:22;;;;;;;11.70;5.60;;;8.10;99.90;;;;;;4993612;28;20488;-79
2022/05/04 04:26:50;;;;;;;12.20;5.80;;;8.10;99.90;;;;;;5021462;28;20460;-77
2022/05/04 04:32:37;;;;;;;7.73;5.80;;;;;;;;;;4989300;28;20482;-78
2022/05/04 04:35:04;;;;;;;13.23;5.87;;;8.10;99.90;;;;;;5024992;28;20487;-77
2022/05/04 04:37:31;;;;;;;8.07;5.00;;;;;;;;;;5030566;28;20456;-77
2022/05/04 04:39:59;;;;;;;11.50;5.53;;;7.90;99.90;;;;;;5022663;28;20460;-78
2022/05/04 04:42:26;;;;;;;11.43;6.20;;;8.10;99.90;;;;;;5014628;28;20577;-77
2022/05/04 04:44:53;;;;;;;12.60;6.00;;;7.90;99.90;;;;;;5013344;28;20481;-81
2022/05/04 04:47:30;;;;;;;14.30;6.40;;;8.00;99.90;;;;;;5013261;28;20449;-81
2022/05/04 04:49:57;;;;;;;12.80;5.87;;;8.40;99.90;;;;;;5012344;28;20453;-79
2022/05/04 04:52:25;;;;;;;9.90;5.53;;;8.20;99.90;;;;;;5013094;28;20486;-80
2022/05/04 04:54:52;;;;;;;15.20;6.70;;;;;;;;;;5012774;28;20512;-77
2022/05/04 04:57:20;;;;;;;11.80;5.73;;;8.40;99.90;;;;;;5012950;28;20517;-77
2022/05/04 05:00:38;;;;;;;;;;;;;;;;;;;;;
2022/05/04 05:03:06;;;;;;;11.70;5.13;;;8.30;99.90;;;;;;5009230;28;20996;-77
2022/05/04 05:05:33;;;;;;;11.50;5.33;;;8.30;99.90;;;;;;5012824;28;20455;-76
2022/05/04 05:08:00;;;;;;;10.80;5.40;;;;;;;;;;5023429;28;20463;-78
2022/05/04 05:10:27;;;;;;;12.57;6.67;;;8.20;99.90;;;;;;5033097;28;20455;-77
2022/05/04 05:13:13;;;;;;;11.97;6.00;;;8.40;99.90;;;;;;5032882;28;20866;-77
2022/05/04 05:18:28;;;;;;;12.30;6.37;;;8.50;99.90;;;;;;5033163;28;20432;-76
2022/05/04 05:20:55;;;;;;;15.10;7.03;;;;;;;;;;5033073;28;20969;-77
2022/05/04 05:23:23;;;;;;;10.20;5.77;;;8.70;99.90;;;;;;5033132;28;20513;-77
2022/05/04 05:25:49;;;;;;;14.83;5.67;;;8.90;99.90;;;;;;5032946;28;20459;-77
2022/05/04 05:28:18;;;;;;;11.53;5.43;;;8.50;99.90;;;;;;5032781;28;20525;-78
2022/05/04 05:30:44;;;;;;;11.47;6.40;;;8.60;99.90;;;;;;5032849;28;20457;-79
2022/05/04 05:33:11;;;;;;;14.10;6.47;;;8.80;99.90;;;;;;5032938;28;20471;-77
2022/05/04 05:35:38;;;;;;;17.20;5.90;;;8.80;99.90;;;;;;5033958;28;20453;-77
2022/05/04 05:38:05;;;;;;;10.63;5.73;;;8.90;99.90;;;;;;5036071;28;20465;-80
2022/05/04 05:40:32;;;;;;;10.83;5.30;;;8.80;99.90;;;;;;5036108;28;20455;-77
2022/05/04 05:42:59;;;;;;;11.20;5.23;;;9.30;99.90;;;;;;5035681;28;20553;-78
2022/05/04 05:45:27;;;;;;;11.17;6.20;;;9.10;99.90;;;;;;5035958;28;20450;-77
2022/05/04 05:47:54;;;;;;;9.33;6.60;;;9.30;99.90;;;;;;5036234;28;20457;-78
2022/05/04 05:50:21;;;;;;;16.23;6.43;;;9.30;99.90;;;;;;5036995;28;20455;-78
2022/05/04 05:52:48;;;;;;;12.27;5.93;;;9.30;99.90;;;;;;5037535;28;20613;-79
2022/05/04 05:55:14;;;;;;;13.43;6.97;;;9.50;99.90;;;;;;5037272;28;20465;-77
2022/05/04 05:57:41;;;;;;;12.13;6.03;;;9.70;99.90;;;;;;5037697;28;20452;-78
2022/05/04 06:00:09;;;;;;;9.97;5.80;;;9.60;99.90;;;;;;5037102;28;20451;-79
2022/05/04 06:02:37;;;;;;;13.47;6.00;;;9.60;99.90;;;;;;5026553;28;20536;-79
2022/05/04 06:05:04;;;;;;;10.60;6.03;;;9.70;99.90;;;;;;5034956;28;20486;-77
2022/05/04 06:07:31;;;;;;;17.80;7.20;;;9.60;99.90;;;;;;5032940;28;20511;-77
2022/05/04 06:09:58;;;;;;;12.77;6.97;;;9.50;99.90;;;;;;5020279;28;20506;-80
2022/05/04 06:12:25;;;;;;;13.60;6.23;;;;;;;;;;5018896;28;20486;-80
2022/05/04 06:14:52;;;;;;;13.57;6.40;;;9.70;99.90;;;;;;5019521;28;20893;-80
2022/05/04 06:17:19;;;;;;;12.80;6.93;;;9.80;99.90;;;;;;5021635;28;20478;-79
2022/05/04 06:19:47;;;;;;;11.90;6.27;;;9.60;99.90;;;;;;5018476;28;20457;-81
2022/05/04 06:22:13;;;;;;;14.90;6.10;;;10.00;99.90;;;;;;5032099;28;20463;-81
2022/05/04 06:24:40;;;;;;;14.93;7.50;;;10.00;99.90;;;;;;5032958;28;20482;-79
2022/05/04 06:27:08;;;;;;;14.90;7.20;;;;;;;;;;5033854;28;21007;-79
2022/05/04 06:35:06;;;;;;;17.93;7.53;;;10.30;99.90;;;;;;5070553;28;20433;-80
2022/05/04 06:37:33;;;;;;;16.80;7.60;;;10.40;99.90;;;;;;5069560;28;20449;-80
2022/05/04 06:40:00;;;;;;;8.40;5.83;;;11.10;99.90;;;;;;5077696;28;20452;-81
2022/05/04 06:42:27;;;;;;;15.60;8.77;;;10.60;99.90;;;;;;5050813;28;21008;-80
2022/05/04 06:44:53;;;;;;;13.50;6.30;;;10.50;99.90;;;;;;5054263;28;20443;-80
2022/05/04 06:47:20;;;;;;;11.97;6.27;;;10.50;99.90;;;;;;5056076;28;20455;-79
2022/05/04 06:49:47;;;;;;;11.87;6.50;;;10.90;99.90;;;;;;5040828;28;20452;-80
2022/05/04 06:52:15;;;;;;;12.17;6.50;;;10.50;99.90;;;;;;5036424;28;20574;-80
2022/05/04 06:54:42;;;;;;;15.10;7.60;;;10.70;99.90;;;;;;5033644;28;20455;-80
2022/05/04 06:57:09;;;;;;;8.00;5.97;;;11.00;99.90;;;;;;5019636;28;20453;-82
2022/05/04 06:59:36;;;;;;;13.83;7.20;;;11.10;99.90;;;;;;5026271;28;20549;-80
2022/05/04 07:02:04;;;;;;;12.93;6.70;;;11.00;99.90;;;;;;5033670;28;20504;-80
2022/05/04 07:04:34;;;;;;;11.80;6.53;;;;;;;;;;5043373;28;21300;-82
2022/05/04 07:07:01;;;;;;;17.00;6.80;;;11.70;99.90;;;;;;5035829;28;20449;-82
2022/05/04 07:09:29;;;;;;;9.27;6.63;;;11.60;99.90;;;;;;5033044;28;20487;-79
2022/05/04 07:11:56;;;;;;;10.40;6.87;;;12.30;99.90;;;;;;5031979;28;20481;-80
2022/05/04 07:14:23;;;;;;;14.70;7.30;;;;;;;;;;5023818;28;20563;-81
2022/05/04 07:16:50;;;;;;;11.67;7.03;;;11.60;99.90;;;;;;5021283;28;20453;-80
2022/05/04 07:19:17;;;;;;;12.40;5.30;;;11.80;99.90;;;;;;5035724;28;20453;-80
2022/05/04 07:21:45;;;;;;;13.30;7.50;;;12.30;99.90;;;;;;5034694;28;20512;-80
2022/05/04 07:24:12;;;;;;;12.20;6.67;;;;;;;;;;5033898;28;20469;-82
2022/05/04 07:26:40;;;;;;;15.73;8.00;;;12.60;99.90;;;;;;5033083;28;20457;-81
2022/05/04 07:29:07;;;;;;;23.60;9.33;;;13.30;99.90;;;;;;5035503;28;20524;-80
2022/05/04 07:31:35;;;;;;;15.20;7.03;;;13.00;99.90;;;;;;5035514;28;20477;-82
2022/05/04 07:34:02;;;;;;;18.20;6.93;;;12.90;99.90;;;;;;5037000;28;20486;-81
2022/05/04 07:36:33;;;;;;;12.67;8.40;;;;;;;;;;5033970;28;20449;-81
2022/05/04 07:38:59;;;;;;;12.93;8.40;;;13.00;99.90;;;;;;5035682;28;20904;-81
2022/05/04 07:44:12;;;;;;;13.40;7.90;;;13.90;99.90;;;;;;5031728;28;20463;-81
2022/05/04 07:46:39;;;;;;;15.33;8.93;;;13.20;99.90;;;;;;5038729;28;20453;-82
2022/05/04 07:49:07;;;;;;;12.50;7.70;;;13.70;99.90;;;;;;5031752;28;20491;-80
2022/05/04 07:51:34;;;;;;;12.57;6.97;;;14.20;99.90;;;;;;5047859;28;20482;-81
2022/05/04 07:54:01;;;;;;;18.77;7.57;;;;;;;;;;5037312;28;20466;-82
2022/05/04 07:56:28;;;;;;;14.07;9.97;;;14.40;99.90;;;;;;5035071;28;20551;-81
2022/05/04 07:58:54;;;;;;;20.47;9.27;;;14.70;99.90;;;;;;5034089;28;20533;-80
2022/05/04 08:04:20;;;;;;;14.23;7.60;;;;;;;;;;5037112;28;20506;-80
2022/05/04 08:06:47;;;;;;;12.60;7.33;;;15.30;99.90;;;;;;5040773;28;20467;-80
2022/05/04 08:09:14;;;;;;;18.90;7.53;;;16.60;99.90;;;;;;5045555;28;20454;-81
2022/05/04 08:11:42;;;;;;;14.60;7.67;;;16.90;99.90;;;;;;5024719;28;20868;-81
2022/05/04 08:14:08;;;;;;;13.70;7.47;;;17.60;99.90;;;;;;5031783;28;20455;-80
2022/05/04 08:16:52;;;;;;;11.93;7.60;;;19.30;99.90;;;;;;5026732;28;20455;-81
2022/05/04 08:19:19;;;;;;;15.10;7.57;;;20.60;99.90;;;;;;5035017;28;21000;-82
2022/05/04 08:21:48;;;;;;;13.40;7.83;;;20.40;99.90;;;;;;5032384;28;20529;-81
2022/05/04 08:24:15;;;;;;;11.80;7.60;;;19.10;99.90;;;;;;5040186;28;20452;-82
2022/05/04 08:26:42;;;;;;;18.30;8.30;;;19.10;99.90;;;;;;5022322;28;20486;-80
2022/05/04 08:29:09;;;;;;;12.13;8.03;;;19.30;99.90;;;;;;5020065;28;20488;-82
2022/05/04 08:31:38;;;;;;;13.83;8.10;;;19.00;99.90;;;;;;5021213;28;20477;-82
2022/05/04 08:34:05;;;;;;;13.37;7.70;;;19.20;99.90;;;;;;5020506;28;20464;-81
2022/05/04 08:36:32;;;;;;;14.60;8.30;;;;;;;;;;5029012;28;20560;-81
2022/05/04 08:38:58;;;;;;;14.43;8.13;;;20.80;99.90;;;;;;5035428;28;20480;-82
2022/05/04 08:41:27;;;;;;;19.10;8.70;;;21.10;99.90;;;;;;5026251;28;20551;-81
2022/05/04 08:43:56;;;;;;;11.53;7.07;;;22.80;99.90;;;;;;5033117;28;20821;-81
2022/05/04 08:46:24;;;;;;;10.20;7.70;;;22.80;99.90;;;;;;5034531;28;20442;-83
2022/05/04 08:48:54;;;;;;;13.20;8.03;;;22.90;99.90;;;;;;5034405;28;20495;-80
2022/05/04 08:51:21;;;;;;;15.53;8.30;;;23.40;99.90;;;;;;5033168;28;20557;-82
2022/05/04 08:53:50;;;;;;;12.43;7.50;;;23.80;99.90;;;;;;5032967;28;20500;-83
2022/05/04 08:56:17;;;;;;;9.30;7.30;;;24.50;99.90;;;;;;5049879;28;20453;-81
2022/05/04 08:58:43;;;;;;;11.20;8.90;;;24.70;99.90;;;;;;5033563;28;20473;-81
2022/05/04 09:01:10;;;;;;;13.63;8.23;;;24.00;99.90;;;;;;5041375;28;20496;-80
2022/05/04 09:03:38;;;;;;;8.67;7.00;;;24.20;99.90;;;;;;5035291;28;20457;-81
2022/05/04 09:06:06;;;;;;;20.10;9.07;;;25.50;99.90;;;;;;5034926;28;20467;-81
2022/05/04 09:08:54;;;;;;;12.50;9.13;;;26.10;99.90;;;;;;5042902;28;20519;-82
2022/05/04 09:11:21;;;;;;;10.23;7.97;;;25.70;99.90;;;;;;5042276;28;20496;-84
2022/05/04 09:13:49;;;;;;;11.57;8.27;;;27.00;99.90;;;;;;5038558;28;20546;-82
2022/05/04 09:16:25;;;;;;;13.20;8.83;;;27.20;96.60;;;;;;5041100;28;20467;-81
2022/05/04 09:18:55;;;;;;;10.43;7.37;;;28.10;95.20;;;;;;5037734;28;20451;-81
2022/05/04 09:21:24;;;;;;;11.80;8.93;;;28.30;99.20;;;;;;5041363;28;20474;-79
2022/05/04 09:23:53;;;;;;;16.13;11.80;;;28.10;98.30;;;;;;5036988;28;20452;-79
2022/05/04 09:26:21;;;;;;;10.10;9.10;;;27.90;91.70;;;;;;5036725;28;20456;-81
2022/05/04 09:28:51;;;;;;;13.00;9.10;;;28.90;93.20;;;;;;5034901;28;21045;-80
2022/05/04 09:31:18;;;;;;;10.17;7.63;;;;;;;;;;5041879;28;20534;-80
2022/05/04 09:33:57;;;;;;;12.93;8.47;;;29.90;86.10;;;;;;5034218;28;21009;-80
2022/05/04 09:36:36;;;;;;;13.03;7.60;;;30.90;97.40;;;;;;5028511;28;20529;-80
2022/05/04 09:45:09;;;;;;;14.60;9.57;;;26.90;97.60;;;;;;5031611;28;20534;-80
2022/05/04 09:47:38;;;;;;;14.03;11.00;;;25.60;81.40;;;;;;5029895;28;21283;-82
2022/05/04 09:50:06;;;;;;;16.83;10.27;;;25.80;93.40;;;;;;5021315;28;20453;-83
2022/05/04 09:52:42;;;;;;;12.37;10.00;;;26.50;88.10;;;;;;5025706;28;20577;-80
2022/05/04 09:55:14;;;;;;;12.53;9.63;;;28.00;88.40;;;;;;5022295;28;20457;-81
2022/05/04 09:57:42;;;;;;;14.90;9.57;;;29.10;84.20;;;;;;5027646;28;20461;-79
2022/05/04 10:00:10;;;;;;;11.47;8.53;;;29.60;81.00;;;;;;5038789;28;20542;-80
2022/05/04 10:02:38;;;;;;;12.40;10.27;;;28.40;93.40;;;;;;5024875;28;20811;-79
2022/05/04 10:05:05;;;;;;;13.80;9.37;;;29.10;97.10;;;;;;5037328;28;20465;-79
2022/05/04 10:07:32;;;;;;;15.50;10.53;;;28.60;94.90;;;;;;5039212;28;20948;-80
2022/05/04 10:10:01;;;;;;;12.00;8.60;;;27.00;94.60;;;;;;5039276;28;20448;-79
2022/05/04 10:12:30;;;;;;;11.67;8.80;;;25.00;87.70;;;;;;5040640;28;20524;-79
2022/05/04 10:14:59;;;;;;;14.03;10.70;;;24.70;78.60;;;;;;5038491;28;20560;-80
2022/05/04 10:17:28;;;;;;;12.47;11.00;;;24.40;96.80;;;;;;5028907;28;20453;-79
2022/05/04 10:19:59;;;;;;;14.10;9.57;;;23.00;95.40;;;;;;5019371;28;20450;-79
2022/05/04 10:22:30;;;;;;;15.50;10.43;;;23.00;81.60;;;;;;5020944;28;20477;-79
2022/05/04 10:25:00;;;;;;;13.73;9.37;;;23.20;99.90;;;;;;5031623;28;20449;-80
2022/05/04 10:27:29;;;;;;;14.60;10.50;;;22.60;83.70;;;;;;5040587;28;20460;-79
2022/05/04 10:32:46;;;;;;;18.90;11.37;;;21.70;99.90;;;;;;5020664;28;20531;-78
2022/05/04 10:35:21;;;;;;;15.17;11.73;;;20.70;96.60;;;;;;5023089;28;20457;-80
2022/05/04 10:38:12;;;;;;;14.73;11.73;;;20.90;99.90;;;;;;5029408;28;20514;-80
2022/05/04 10:40:43;;;;;;;16.40;11.27;;;21.80;92.30;;;;;;5020619;28;20460;-80
2022/05/04 10:43:13;;;;;;;15.87;10.57;;;21.70;94.50;;;;;;5023765;28;20883;-79
2022/05/04 10:45:41;;;;;;;14.73;10.00;;;21.70;99.90;;;;;;5025323;28;20457;-80
2022/05/04 10:48:29;;;;;;;13.37;10.10;;;22.00;93.70;;;;;;5033228;28;20472;-80
2022/05/04 10:51:04;;;;;;;13.10;9.10;;;25.20;92.30;;;;;;5020146;28;20488;-79
2022/05/04 10:53:42;;;;;;;13.23;10.13;;;26.60;91.50;;;;;;5036720;28;20507;-80
2022/05/04 10:56:12;;;;;;;14.87;11.23;;;25.00;85.20;;;;;;5034645;28;20512;-81
2022/05/04 10:58:44;;;;;;;18.73;11.30;;;24.70;90.10;;;;;;5038643;28;20483;-80
2022/05/04 11:01:16;;;;;;;16.17;11.60;;;23.80;91.10;;;;;;5037395;28;20989;-80
2022/05/04 11:03:57;;;;;;;15.17;12.10;;;24.10;99.90;;;;;;5034810;28;20487;-80
2022/05/04 11:06:29;;;;;;;15.90;11.57;;;22.80;86.00;;;;;;5033592;28;20818;-80
2022/05/04 11:09:00;;;;;;;16.77;12.10;;;23.20;88.20;;;;;;5036953;28;20897;-81
2022/05/04 11:11:28;;;;;;;15.73;11.40;;;23.40;97.50;;;;;;5041195;28;20515;-82
2022/05/04 11:13:56;;;;;;;15.00;11.23;;;23.10;94.60;;;;;;5044256;28;21007;-81
2022/05/04 11:16:24;;;;;;;23.67;14.93;;;22.90;90.60;;;;;;5035852;28;21043;-80
2022/05/04 11:18:51;;;;;;;18.13;13.83;;;22.60;87.80;;;;;;5034413;28;20551;-80
2022/05/04 11:21:20;;;;;;;19.57;14.47;;;21.90;89.20;;;;;;5035499;28;20573;-81
2022/05/04 11:23:49;;;;;;;21.27;15.00;;;21.80;91.50;;;;;;5030811;28;20476;-81
2022/05/04 11:26:20;;;;;;;17.47;14.00;;;22.20;95.00;;;;;;5041475;28;20552;-81
2022/05/04 11:28:48;;;;;;;16.30;12.87;;;21.80;89.60;;;;;;5038603;28;20465;-80
2022/05/04 11:31:17;;;;;;;19.70;13.77;;;22.40;90.10;;;;;;5034700;28;20534;-81
2022/05/04 11:33:45;;;;;;;24.77;17.30;;;22.60;90.90;;;;;;5039590;28;20584;-80
2022/05/04 11:36:13;;;;;;;20.23;15.73;;;22.30;94.50;;;;;;5040878;28;20466;-81
2022/05/04 11:38:44;;;;;;;16.53;13.37;;;24.20;89.50;;;;;;5053498;28;20546;-81
2022/05/04 11:41:11;;;;;;;63.27;58.03;;;24.50;99.90;;;;;;5049856;28;20472;-82
2022/05/04 11:43:38;;;;;;;17.40;13.00;;;24.30;91.10;;;;;;5050979;28;20459;-82
2022/05/04 11:46:07;;;;;;;19.63;14.27;;;27.20;90.90;;;;;;5049368;28;20447;-82
2022/05/04 11:48:38;;;;;;;16.20;13.40;;;29.10;97.50;;;;;;5048394;28;20479;-81
2022/05/04 11:51:06;;;;;;;15.43;12.03;;;30.70;81.90;;;;;;5048722;28;20468;-81
2022/05/04 11:53:34;;;;;;;13.60;12.20;;;32.60;70.50;;;;;;5055348;28;20547;-81
2022/05/04 11:56:03;;;;;;;13.43;12.13;;;34.30;69.20;;;;;;5041029;28;20982;-81
2022/05/04 11:58:31;;;;;;;15.17;12.80;;;34.10;70.20;;;;;;5023735;28;20477;-81
2022/05/04 12:00:58;;;;;;;12.90;11.53;;;35.00;72.90;;;;;;5033343;28;20835;-82
2022/05/04 12:03:26;;;;;;;12.30;11.00;;;36.10;57.30;;;;;;5050369;28;20448;-81
2022/05/04 12:05:55;;;;;;;11.07;9.47;;;35.70;55.30;;;;;;5036558;28;20461;-81
2022/05/04 12:08:23;;;;;;;11.33;10.20;;;36.70;56.20;;;;;;5025777;28;20450;-82
2022/05/04 12:10:51;;;;;;;14.70;12.17;;;37.40;55.00;;;;;;5028092;28;20544;-82
2022/05/04 12:13:22;;;;;;;13.80;12.40;;;37.00;49.30;;;;;;5043810;28;20861;-82
2022/05/04 12:15:50;;;;;;;15.97;13.23;;;;;;;;;;5029574;28;20459;-84
2022/05/04 12:18:17;;;;;;;11.23;9.90;;;38.00;60.70;;;;;;5034939;28;20485;-82
2022/05/04 12:20:44;;;;;;;12.00;9.83;;;38.30;47.40;;;;;;5040611;28;20450;-81
2022/05/04 12:23:13;;;;;;;11.20;8.53;;;38.80;68.70;;;;;;5038092;28;20446;-82
2022/05/04 12:25:41;;;;;;;10.20;8.60;;;37.50;50.50;;;;;;5036035;28;20460;-81
2022/05/04 12:28:07;;;;;;;10.53;9.40;;;37.40;66.40;;;;;;5038382;28;20456;-79
2022/05/04 12:33:30;;;;;;;11.73;9.57;;;33.10;46.40;;;;;;5039855;28;20483;-81
2022/05/04 12:35:59;;;;;;;14.50;11.67;;;31.00;47.90;;;;;;5031803;28;20456;-80
2022/05/04 12:38:28;;;;;;;18.70;11.70;;;29.20;50.00;;;;;;5036971;28;20539;-79
2022/05/04 12:40:55;;;;;;;18.53;13.40;;;27.40;49.60;;;;;;5035836;28;20516;-81
2022/05/04 12:43:24;;;;;;;10.53;9.40;;;27.10;50.00;;;;;;5047554;28;20433;-79
2022/05/04 12:45:55;;;;;;;11.50;8.93;;;26.30;53.20;;;;;;5040663;28;20465;-81
2022/05/04 12:48:25;;;;;;;11.80;8.90;;;25.60;55.70;;;;;;5042738;28;20507;-79
2022/05/04 12:50:53;;;;;;;12.80;11.63;;;;;;;;;;5031364;28;20453;-80
2022/05/04 12:53:20;;;;;;;9.53;7.43;;;;;;;;;;5033370;28;20559;-81
2022/05/04 12:58:32;;;;;;;10.63;8.17;;;31.90;54.70;;;;;;5034573;28;20447;-79
2022/05/04 13:00:59;;;;;;;48.53;45.30;;;30.00;70.40;;;;;;5022630;28;20473;-81
2022/05/04 13:03:26;;;;;;;429.00;403.73;;;27.70;75.70;;;;;;5034534;28;20552;-80
2022/05/04 13:05:53;;;;;;;352.80;335.63;;;29.00;81.90;;;;;;5049052;28;20566;-81
2022/05/04 13:08:20;;;;;;;50.00;46.77;;;;;;;;;;5047743;28;20572;-80
2022/05/04 13:10:49;;;;;;;34.80;31.90;;;31.50;58.80;;;;;;5045109;28;20456;-82
2022/05/04 13:13:18;;;;;;;81.63;74.50;;;31.40;55.50;;;;;;5039338;28;20961;-82
2022/05/04 13:15:45;;;;;;;9.40;8.00;;;32.90;53.40;;;;;;5037590;28;20465;-81
2022/05/04 13:18:11;;;;;;;18.27;16.60;;;32.00;57.10;;;;;;5038464;28;20452;-81
2022/05/04 13:20:39;;;;;;;9.67;8.70;;;30.10;58.90;;;;;;5042307;28;20448;-81
2022/05/04 13:23:07;;;;;;;47.33;43.87;;;29.30;83.30;;;;;;5035036;28;20463;-80
2022/05/04 13:25:34;;;;;;;192.20;182.50;;;;;;;;;;5059685;22;20496;-81
2022/05/04 13:28:02;;;;;;;67.63;47.17;;;;;;;;;;5036846;28;20945;-81
2022/05/04 13:30:29;;;;;;;25.00;23.00;;;;;;;;;;5043131;28;20458;-81
2022/05/04 13:32:56;;;;;;;15.97;11.33;;;30.90;66.30;;;;;;5039540;28;20444;-82
2022/05/04 13:35:26;;;;;;;75.43;71.37;;;32.20;50.40;;;;;;5034316;28;20527;-80
2022/05/04 13:37:53;;;;;;;8.73;5.80;;;34.10;67.50;;;;;;5029660;28;20465;-79
2022/05/04 13:40:20;;;;;;;8.07;5.77;;;36.60;66.80;;;;;;5043832;28;20509;-78